Time;durP1;ratioP1;P1;durP2;ratioP2;P2;SDS_P1;SDS_P2;PMS_P1;PMS_P2;Temp;Humidity;BMP_temperature;BMP_pressure;BME280_temperature;BME280_humidity;BME280_pressure;Samples;Min_cycle;Max_cycle;Signal;HPM_P1;HPM_P2
2022/10/22 00:01:33;;;;;;;;;5.50;5.50;;;;;;;;5099742;27;45278;-72
2022/10/22 00:03:58;;;;;;;;;3.50;3.50;;;;;;;;5099019;27;45450;-70
2022/10/22 00:06:24;;;;;;;;;5.75;5.75;;;;;;;;5099623;27;45338;-73
2022/10/22 00:08:49;;;;;;;;;6.50;6.50;;;;;;;;5099004;27;46793;-73
2022/10/22 00:11:16;;;;;;;;;5.00;5.00;;;;;;;;5099603;27;45270;-74
2022/10/22 00:13:41;;;;;;;;;4.00;4.00;;;;;;;;5101356;27;45213;-77
2022/10/22 00:16:07;;;;;;;;;86.67;84.00;;;;;;;;5103023;27;45553;-73
2022/10/22 00:18:32;;;;;;;;;6.25;6.25;;;;;;;;5104904;27;46170;-76
2022/10/22 00:20:57;;;;;;;;;46.50;40.25;;;;;;;;5101212;27;45501;-76
2022/10/22 00:23:22;;;;;;;;;6.00;6.00;;;;;;;;5099975;27;45376;-74
2022/10/22 00:25:47;;;;;;;;;5.50;5.50;;;;;;;;5099964;27;45507;-76
2022/10/22 00:28:13;;;;;;;;;4.75;4.75;;;;;;;;5099618;27;46309;-75
2022/10/22 00:30:39;;;;;;;;;3.00;3.00;;;;;;;;5098304;27;45792;-73
2022/10/22 00:33:04;;;;;;;;;3.75;3.75;;;;;;;;5097239;27;45246;-74
2022/10/22 00:35:29;;;;;;;;;3.75;3.75;;;;;;;;5100064;27;45235;-73
2022/10/22 00:37:54;;;;;;;;;2.75;2.75;;;;;;;;5099283;27;46346;-72
2022/10/22 00:40:19;;;;;;;;;4.00;4.00;;;;;;;;5106183;27;45153;-70
2022/10/22 00:42:45;;;;;;;;;3.50;3.50;;;;;;;;5104171;27;45214;-72
2022/10/22 00:45:10;;;;;;;;;3.75;3.75;;;;;;;;5104050;27;45217;-75
2022/10/22 00:47:43;;;;;;;;;5.40;4.60;;;;;;;;5105480;27;46247;-75
2022/10/22 00:50:14;;;;;;;;;4.00;4.00;;;;;;;;5098611;27;45412;-72
2022/10/22 00:52:40;;;;;;;;;3.00;3.00;;;;;;;;5092209;27;45354;-73
2022/10/22 00:55:05;;;;;;;;;3.25;3.25;;;;;;;;5075770;27;45457;-76
2022/10/22 00:57:31;;;;;;;;;2.75;2.75;;;;;;;;5075945;27;45550;-72
2022/10/22 00:59:56;;;;;;;;;4.00;3.00;;;;;;;;5075873;27;45393;-74
2022/10/22 01:02:21;;;;;;;;;3.25;3.25;;;;;;;;5076552;28;45436;-74
2022/10/22 01:04:46;;;;;;;;;2.00;2.00;;;;;;;;5077344;28;45334;-74
2022/10/22 01:07:15;;;;;;;;;2.00;2.00;;;;;;;;5110350;27;47508;-73
2022/10/22 01:09:45;;;;;;;;;1.25;1.25;;;;;;;;5078931;27;45455;-77
2022/10/22 01:12:19;;;;;;;;;30.00;28.75;;;;;;;;5077866;27;45343;-74
2022/10/22 01:15:01;;;;;;;;;3.00;3.00;;;;;;;;5078029;27;45392;-74
2022/10/22 01:17:33;;;;;;;;;10.75;10.75;;;;;;;;5077186;27;46452;-75
2022/10/22 01:20:13;;;;;;;;;14.50;13.50;;;;;;;;5078992;27;45382;-77
2022/10/22 01:22:41;;;;;;;;;12.25;12.25;;;;;;;;5078194;27;45243;-73
2022/10/22 01:25:06;;;;;;;;;7.00;7.00;;;;;;;;5077922;27;45500;-76
2022/10/22 01:27:40;;;;;;;;;3.00;3.00;;;;;;;;5078214;28;45335;-74
2022/10/22 01:30:06;;;;;;;;;3.75;3.75;;;;;;;;5079200;27;45379;-76
2022/10/22 01:32:36;;;;;;;;;2.00;2.00;;;;;;;;5080189;27;45389;-74
2022/10/22 01:35:04;;;;;;;;;3.00;3.00;;;;;;;;5085296;27;45337;-73
2022/10/22 01:37:30;;;;;;;;;3.75;3.75;;;;;;;;5080600;27;45344;-73
2022/10/22 01:39:57;;;;;;;;;3.50;3.50;;;;;;;;5081391;27;45326;-74
2022/10/22 01:42:22;;;;;;;;;3.75;3.75;;;;;;;;5083123;27;45315;-73
2022/10/22 01:44:49;;;;;;;;;3.00;3.00;;;;;;;;5078890;27;45350;-75
2022/10/22 01:47:26;;;;;;;;;2.50;2.50;;;;;;;;5077871;27;47145;-74
2022/10/22 01:50:01;;;;;;;;;3.00;3.00;;;;;;;;5077599;27;45257;-72
2022/10/22 01:52:44;;;;;;;;;4.00;4.00;;;;;;;;5077315;27;45413;-76
2022/10/22 01:55:28;;;;;;;;;2.00;2.00;;;;;;;;5077613;27;45347;-75
2022/10/22 01:57:56;;;;;;;;;4.00;3.00;;;;;;;;5077344;27;46700;-76
2022/10/22 02:00:22;;;;;;;;;4.50;4.00;;;;;;;;5077565;27;45380;-75
2022/10/22 02:03:06;;;;;;;;;2.00;2.00;;;;;;;;5077445;27;45205;-76
2022/10/22 02:05:51;;;;;;;;;3.00;2.25;;;;;;;;5078869;27;45512;-75
2022/10/22 02:08:18;;;;;;;;;3.50;3.50;;;;;;;;5077901;27;46242;-74
2022/10/22 02:10:45;;;;;;;;;7.25;7.25;;;;;;;;5077290;27;45322;-74
2022/10/22 02:13:13;;;;;;;;;4.50;4.50;;;;;;;;5077460;27;45393;-73
2022/10/22 02:15:39;;;;;;;;;5.50;5.50;;;;;;;;5077386;27;45538;-75
2022/10/22 02:18:06;;;;;;;;;9.75;9.75;;;;;;;;5077106;27;45724;-77
2022/10/22 02:20:32;;;;;;;;;4.00;4.00;;;;;;;;5077092;27;45238;-75
2022/10/22 02:22:58;;;;;;;;;6.75;6.75;;;;;;;;5077567;27;45313;-71
2022/10/22 02:25:26;;;;;;;;;4.00;4.00;;;;;;;;5075304;28;45240;-72
2022/10/22 02:27:59;;;;;;;;;2.50;2.50;;;;;;;;5075824;27;45347;-71
2022/10/22 02:30:25;;;;;;;;;4.75;4.75;;;;;;;;5076238;27;45400;-71
2022/10/22 02:32:56;;;;;;;;;5.25;5.25;;;;;;;;5076095;27;45377;-71
2022/10/22 02:35:24;;;;;;;;;5.75;5.75;;;;;;;;5076046;27;45184;-72
2022/10/22 02:37:51;;;;;;;;;2.25;2.25;;;;;;;;5075142;27;45457;-73
2022/10/22 02:40:17;;;;;;;;;4.50;4.50;;;;;;;;5076340;27;45326;-75
2022/10/22 02:42:43;;;;;;;;;4.00;3.00;;;;;;;;5076310;28;45306;-77
2022/10/22 02:45:08;;;;;;;;;2.50;2.50;;;;;;;;5080210;28;45540;-75
2022/10/22 02:47:33;;;;;;;;;2.25;2.25;;;;;;;;5081274;28;46119;-73
2022/10/22 02:49:58;;;;;;;;;2.50;2.50;;;;;;;;5079673;28;45429;-75
2022/10/22 02:52:24;;;;;;;;;1.00;1.00;;;;;;;;5080229;27;45230;-72
2022/10/22 02:54:49;;;;;;;;;1.25;1.25;;;;;;;;5079607;27;45362;-72
2022/10/22 02:57:14;;;;;;;;;2.75;2.75;;;;;;;;5078981;27;46095;-73
2022/10/22 02:59:39;;;;;;;;;4.00;4.00;;;;;;;;5078952;28;45259;-75
2022/10/22 03:02:04;;;;;;;;;2.50;2.50;;;;;;;;5079367;27;45348;-76
2022/10/22 03:04:30;;;;;;;;;3.00;3.00;;;;;;;;5080210;28;45308;-71
2022/10/22 03:06:55;;;;;;;;;4.00;4.00;;;;;;;;5083147;27;46138;-74
2022/10/22 03:09:20;;;;;;;;;2.75;2.75;;;;;;;;5086816;28;45353;-76
2022/10/22 03:11:46;;;;;;;;;3.50;3.50;;;;;;;;5078747;28;45307;-77
2022/10/22 03:14:11;;;;;;;;;1.50;1.50;;;;;;;;5111591;27;45556;-74
2022/10/22 03:16:36;;;;;;;;;6.00;5.00;;;;;;;;5078558;27;46235;-76
2022/10/22 03:19:02;;;;;;;;;2.50;2.50;;;;;;;;5078431;27;45354;-77
2022/10/22 03:21:30;;;;;;;;;4.50;4.50;;;;;;;;5111136;27;45306;-76
2022/10/22 03:23:56;;;;;;;;;2.00;2.00;;;;;;;;5078568;27;45521;-76
2022/10/22 03:26:22;;;;;;;;;2.00;2.00;;;;;;;;5078338;27;45373;-75
2022/10/22 03:28:47;;;;;;;;;2.25;2.25;;;;;;;;5078378;27;45390;-75
2022/10/22 03:31:13;;;;;;;;;4.25;4.25;;;;;;;;5078303;27;45489;-77
2022/10/22 03:33:39;;;;;;;;;1.25;1.25;;;;;;;;5078970;27;45503;-77
2022/10/22 03:36:05;;;;;;;;;2.00;2.00;;;;;;;;5078042;28;45322;-74
2022/10/22 03:38:30;;;;;;;;;3.00;3.00;;;;;;;;5079465;27;45368;-78
2022/10/22 03:40:56;;;;;;;;;1.00;1.00;;;;;;;;5077962;28;45356;-78
2022/10/22 03:43:21;;;;;;;;;5.75;5.75;;;;;;;;5078163;27;45198;-77
2022/10/22 03:45:46;;;;;;;;;2.00;2.00;;;;;;;;5077660;28;46710;-73
2022/10/22 03:48:12;;;;;;;;;8.00;8.00;;;;;;;;5077791;27;45354;-75
2022/10/22 03:50:37;;;;;;;;;3.25;3.25;;;;;;;;5078407;27;45343;-74
2022/10/22 03:53:02;;;;;;;;;2.00;2.00;;;;;;;;5110973;27;45553;-75
2022/10/22 03:55:27;;;;;;;;;3.00;3.00;;;;;;;;5077926;27;45345;-76
2022/10/22 03:57:53;;;;;;;;;3.50;3.50;;;;;;;;5078312;27;45380;-77
2022/10/22 04:00:18;;;;;;;;;1.75;1.75;;;;;;;;5078488;27;45378;-78
2022/10/22 04:02:43;;;;;;;;;2.00;2.00;;;;;;;;5078375;27;45375;-76
2022/10/22 04:05:08;;;;;;;;;2.25;2.25;;;;;;;;5078841;27;45363;-77
2022/10/22 04:07:33;;;;;;;;;3.00;3.00;;;;;;;;5081391;27;45303;-75
2022/10/22 04:09:59;;;;;;;;;4.25;4.25;;;;;;;;5081049;27;45653;-74
2022/10/22 04:12:24;;;;;;;;;2.50;2.50;;;;;;;;5079387;27;45536;-76
2022/10/22 04:14:49;;;;;;;;;3.00;3.00;;;;;;;;5111346;27;47138;-78
2022/10/22 04:17:14;;;;;;;;;4.00;4.00;;;;;;;;5078939;27;45446;-77
2022/10/22 04:19:40;;;;;;;;;2.00;2.00;;;;;;;;5079123;28;45368;-79
2022/10/22 04:22:05;;;;;;;;;2.00;2.00;;;;;;;;5078756;27;45432;-77
2022/10/22 04:24:30;;;;;;;;;2.00;2.00;;;;;;;;5079083;27;45331;-77
2022/10/22 04:26:55;;;;;;;;;3.00;3.00;;;;;;;;5077855;27;45438;-78
2022/10/22 04:29:21;;;;;;;;;5.00;5.00;;;;;;;;5078253;27;45297;-73
2022/10/22 04:31:46;;;;;;;;;5.50;5.50;;;;;;;;5077788;27;45578;-77
2022/10/22 04:34:11;;;;;;;;;3.75;3.75;;;;;;;;5082394;27;45307;-76
2022/10/22 04:36:36;;;;;;;;;6.75;6.75;;;;;;;;5085947;27;45429;-75
2022/10/22 04:39:03;;;;;;;;;10.50;9.75;;;;;;;;5110465;27;45433;-76
2022/10/22 04:41:29;;;;;;;;;4.25;4.25;;;;;;;;5077956;27;45592;-74
2022/10/22 04:43:55;;;;;;;;;2.00;2.00;;;;;;;;5076074;28;46273;-74
2022/10/22 04:46:21;;;;;;;;;4.00;4.00;;;;;;;;5075969;28;45259;-77
2022/10/22 04:48:46;;;;;;;;;3.25;3.25;;;;;;;;5110570;27;45233;-76
2022/10/22 04:51:15;;;;;;;;;11.75;11.75;;;;;;;;5077852;27;45280;-76
2022/10/22 04:53:41;;;;;;;;;4.25;4.25;;;;;;;;5110385;27;47486;-77
2022/10/22 04:56:18;;;;;;;;;3.25;3.25;;;;;;;;5076534;27;45455;-76
2022/10/22 04:58:44;;;;;;;;;3.50;3.50;;;;;;;;5075622;28;45405;-74
2022/10/22 05:01:13;;;;;;;;;3.25;3.25;;;;;;;;5078298;27;45491;-74
2022/10/22 05:03:39;;;;;;;;;3.00;3.00;;;;;;;;5076526;27;46109;-75
2022/10/22 05:06:04;;;;;;;;;3.25;3.25;;;;;;;;5074656;28;45413;-75
2022/10/22 05:08:29;;;;;;;;;5.00;5.00;;;;;;;;5076325;27;45341;-74
2022/10/22 05:10:54;;;;;;;;;3.75;3.75;;;;;;;;5078538;27;45618;-75
2022/10/22 05:13:20;;;;;;;;;4.75;4.75;;;;;;;;5077160;27;46102;-76
2022/10/22 05:15:45;;;;;;;;;2.50;2.50;;;;;;;;5077163;27;45275;-71
2022/10/22 05:18:10;;;;;;;;;3.00;3.00;;;;;;;;5076899;27;45302;-74
2022/10/22 05:20:38;;;;;;;;;2.50;2.50;;;;;;;;5109539;27;45521;-71
2022/10/22 05:23:03;;;;;;;;;3.00;3.00;;;;;;;;5076537;27;46117;-71
2022/10/22 05:25:28;;;;;;;;;3.50;3.50;;;;;;;;5076868;27;45309;-72
2022/10/22 05:27:53;;;;;;;;;3.00;3.00;;;;;;;;5076937;27;45354;-71
2022/10/22 05:30:19;;;;;;;;;2.75;2.75;;;;;;;;5078016;27;45397;-74
2022/10/22 05:32:45;;;;;;;;;4.00;4.00;;;;;;;;5079346;27;45615;-78
2022/10/22 05:35:10;;;;;;;;;3.50;3.50;;;;;;;;5079306;27;45388;-77
2022/10/22 05:37:36;;;;;;;;;3.00;3.00;;;;;;;;5079281;27;45468;-78
2022/10/22 05:40:01;;;;;;;;;2.00;2.00;;;;;;;;5081550;27;45309;-77
2022/10/22 05:42:30;;;;;;;;;1.25;1.25;;;;;;;;5075948;27;45390;-77
2022/10/22 05:44:55;;;;;;;;;2.00;2.00;;;;;;;;5075868;27;45357;-78
2022/10/22 05:47:20;;;;;;;;;3.25;3.25;;;;;;;;5076084;27;45285;-76
2022/10/22 05:49:45;;;;;;;;;4.25;4.25;;;;;;;;5076476;27;45614;-74
2022/10/22 05:52:11;;;;;;;;;4.50;4.50;;;;;;;;5076798;27;45893;-77
2022/10/22 05:54:36;;;;;;;;;2.25;2.25;;;;;;;;5076388;27;45330;-77
2022/10/22 05:57:01;;;;;;;;;3.00;3.00;;;;;;;;5077383;28;45284;-77
2022/10/22 05:59:26;;;;;;;;;5.00;5.00;;;;;;;;5076690;27;45521;-78
2022/10/22 06:01:52;;;;;;;;;3.50;3.50;;;;;;;;5075805;28;45373;-78
2022/10/22 06:04:17;;;;;;;;;4.50;4.50;;;;;;;;5076075;28;45306;-78
2022/10/22 06:06:43;;;;;;;;;5.00;5.00;;;;;;;;5076325;27;45313;-75
2022/10/22 06:09:11;;;;;;;;;4.75;4.75;;;;;;;;5077085;27;45555;-75
2022/10/22 06:11:37;;;;;;;;;5.50;5.50;;;;;;;;5085202;27;45351;-76
2022/10/22 06:14:03;;;;;;;;;4.50;4.50;;;;;;;;5087736;27;44758;-77
2022/10/22 06:16:29;;;;;;;;;4.25;4.25;;;;;;;;5083090;27;45455;-77
2022/10/22 06:18:54;;;;;;;;;5.00;5.00;;;;;;;;5081061;27;45347;-75
2022/10/22 06:21:19;;;;;;;;;4.25;4.25;;;;;;;;5081423;28;45383;-76
2022/10/22 06:23:44;;;;;;;;;7.00;7.00;;;;;;;;5080235;27;45372;-76
2022/10/22 06:26:10;;;;;;;;;4.00;4.00;;;;;;;;5082041;27;45350;-77
2022/10/22 06:28:35;;;;;;;;;5.00;5.00;;;;;;;;5081152;27;45445;-76
2022/10/22 06:31:01;;;;;;;;;6.00;6.00;;;;;;;;5080270;27;46244;-77
2022/10/22 06:33:27;;;;;;;;;5.50;5.50;;;;;;;;5084791;27;45914;-78
2022/10/22 06:35:53;;;;;;;;;4.00;4.00;;;;;;;;5114782;27;45340;-74
2022/10/22 06:38:18;;;;;;;;;4.50;4.50;;;;;;;;5088158;27;45536;-77
2022/10/22 06:40:44;;;;;;;;;5.50;5.50;;;;;;;;5082491;27;45428;-73
2022/10/22 06:43:10;;;;;;;;;6.25;6.25;;;;;;;;5080876;28;45425;-73
2022/10/22 06:45:35;;;;;;;;;5.00;5.00;;;;;;;;5080617;27;45365;-73
2022/10/22 06:48:00;;;;;;;;;4.00;4.00;;;;;;;;5113854;27;45232;-76
2022/10/22 06:50:25;;;;;;;;;7.25;7.25;;;;;;;;5084158;27;45492;-77
2022/10/22 06:52:50;;;;;;;;;4.50;4.50;;;;;;;;5080096;27;45327;-78
2022/10/22 06:55:16;;;;;;;;;5.00;5.00;;;;;;;;5078769;27;45302;-78
2022/10/22 06:57:41;;;;;;;;;5.50;5.50;;;;;;;;5079066;27;45466;-78
2022/10/22 07:00:06;;;;;;;;;5.75;5.75;;;;;;;;5111523;27;46206;-77
2022/10/22 07:02:31;;;;;;;;;7.00;7.00;;;;;;;;5078463;27;45455;-76
2022/10/22 07:04:57;;;;;;;;;5.25;4.75;;;;;;;;5078570;27;45663;-78
2022/10/22 07:07:22;;;;;;;;;5.00;5.00;;;;;;;;5079209;27;45165;-77
2022/10/22 07:09:48;;;;;;;;;4.25;4.25;;;;;;;;5078556;27;45344;-76
2022/10/22 07:12:14;;;;;;;;;6.75;6.75;;;;;;;;5111621;27;45274;-78
2022/10/22 07:14:39;;;;;;;;;5.50;5.50;;;;;;;;5079000;27;45356;-76
2022/10/22 07:17:04;;;;;;;;;6.75;6.75;;;;;;;;5078835;27;45461;-77
2022/10/22 07:19:30;;;;;;;;;7.50;7.50;;;;;;;;5078663;28;46124;-77
2022/10/22 07:21:55;;;;;;;;;3.75;3.75;;;;;;;;5078617;27;45449;-77
2022/10/22 07:24:20;;;;;;;;;5.25;5.25;;;;;;;;5080577;27;45377;-77
2022/10/22 07:26:46;;;;;;;;;6.00;6.00;;;;;;;;5080973;28;45309;-78
2022/10/22 07:29:11;;;;;;;;;5.00;5.00;;;;;;;;5087244;27;45570;-75
2022/10/22 07:31:36;;;;;;;;;5.25;5.25;;;;;;;;5080300;27;45365;-70
2022/10/22 07:34:01;;;;;;;;;3.75;3.75;;;;;;;;5078224;27;45361;-73
2022/10/22 07:36:27;;;;;;;;;5.00;5.00;;;;;;;;5080961;27;45465;-73
2022/10/22 07:38:53;;;;;;;;;5.00;5.00;;;;;;;;5082635;27;46418;-72
2022/10/22 07:41:18;;;;;;;;;3.25;3.25;;;;;;;;5078220;27;45317;-71
2022/10/22 07:43:44;;;;;;;;;4.75;4.75;;;;;;;;5081030;27;45440;-70
2022/10/22 07:46:09;;;;;;;;;4.75;4.75;;;;;;;;5089622;27;45595;-76
2022/10/22 07:48:35;;;;;;;;;6.50;6.50;;;;;;;;5097880;27;46520;-68
2022/10/22 07:51:00;;;;;;;;;5.50;5.50;;;;;;;;5098994;27;45288;-71
2022/10/22 07:53:25;;;;;;;;;7.00;7.00;;;;;;;;5097929;27;45636;-72
2022/10/22 07:55:51;;;;;;;;;6.00;5.50;;;;;;;;5089964;27;45472;-78
2022/10/22 07:58:17;;;;;;;;;5.00;5.00;;;;;;;;5090679;27;47331;-77
2022/10/22 08:00:42;;;;;;;;;4.25;4.25;;;;;;;;5098369;27;45414;-78
2022/10/22 08:03:09;;;;;;;;;7.00;7.00;;;;;;;;5114077;27;45319;-74
2022/10/22 08:05:35;;;;;;;;;8.00;8.00;;;;;;;;5096891;27;45599;-78
2022/10/22 08:08:00;;;;;;;;;5.50;5.50;;;;;;;;5079156;28;47171;-76
2022/10/22 08:10:25;;;;;;;;;5.50;5.00;;;;;;;;5113997;27;45905;-78
2022/10/22 08:12:50;;;;;;;;;6.50;6.50;;;;;;;;5100775;27;45422;-77
2022/10/22 08:15:16;;;;;;;;;5.50;5.50;;;;;;;;5106302;27;45428;-78
2022/10/22 08:17:41;;;;;;;;;6.00;6.00;;;;;;;;5101407;27;45449;-75
2022/10/22 08:20:06;;;;;;;;;6.00;6.00;;;;;;;;5107180;27;45316;-74
2022/10/22 08:22:32;;;;;;;;;8.75;8.75;;;;;;;;5106106;27;45439;-74
2022/10/22 08:24:59;;;;;;;;;2.50;2.50;;;;;;;;5112871;27;45404;-76
2022/10/22 08:27:24;;;;;;;;;5.00;5.00;;;;;;;;5079333;27;46002;-77
2022/10/22 08:29:49;;;;;;;;;3.00;3.00;;;;;;;;5084474;27;45295;-75
2022/10/22 08:32:14;;;;;;;;;5.00;5.00;;;;;;;;5098150;27;45234;-71
2022/10/22 08:34:40;;;;;;;;;5.25;5.25;;;;;;;;5102133;27;45322;-69
2022/10/22 08:37:07;;;;;;;;;7.50;7.50;;;;;;;;5099588;27;46364;-74
2022/10/22 08:39:32;;;;;;;;;4.00;4.00;;;;;;;;5097427;27;45396;-74
2022/10/22 08:42:24;;;;;;;;;3.25;3.25;;;;;;;;5089609;27;45269;-72
2022/10/22 08:44:55;;;;;;;;;3.50;3.50;;;;;;;;5069637;27;45492;-70
2022/10/22 08:47:35;;;;;;;;;11.50;11.50;;;;;;;;5076613;28;46211;-71
2022/10/22 08:50:00;;;;;;;;;5.75;5.75;;;;;;;;5075865;28;45370;-73
2022/10/22 08:52:26;;;;;;;;;5.50;5.50;;;;;;;;5075825;28;45381;-74
2022/10/22 08:54:54;;;;;;;;;5.25;5.25;;;;;;;;5078951;28;45213;-75
2022/10/22 08:57:34;;;;;;;;;6.25;6.25;;;;;;;;5082659;28;48368;-72
2022/10/22 09:00:05;;;;;;;;;4.25;4.25;;;;;;;;5077637;28;45379;-72
2022/10/22 09:02:42;;;;;;;;;4.50;4.50;;;;;;;;5076876;28;45338;-73
2022/10/22 09:05:10;;;;;;;;;9.75;8.75;;;;;;;;5077019;28;45377;-75
2022/10/22 09:07:35;;;;;;;;;6.75;6.50;;;;;;;;5076721;28;45484;-76
2022/10/22 09:10:02;;;;;;;;;6.25;6.25;;;;;;;;5077101;28;45277;-75
2022/10/22 09:12:27;;;;;;;;;3.00;3.00;;;;;;;;5077367;27;45394;-76
2022/10/22 09:14:53;;;;;;;;;6.50;5.00;;;;;;;;5076750;28;45260;-75
2022/10/22 09:17:18;;;;;;;;;6.25;6.25;;;;;;;;5074157;27;45448;-75
2022/10/22 09:19:43;;;;;;;;;7.75;7.75;;;;;;;;5075407;27;45381;-75
2022/10/22 09:22:23;;;;;;;;;12.00;12.00;;;;;;;;5086820;27;45305;-77
2022/10/22 09:24:53;;;;;;;;;10.50;10.50;;;;;;;;5083110;27;45411;-75
2022/10/22 09:27:22;;;;;;;;;6.00;6.00;;;;;;;;5094532;27;46377;-74
2022/10/22 09:29:47;;;;;;;;;5.50;5.50;;;;;;;;5095546;27;45467;-75
2022/10/22 09:32:14;;;;;;;;;5.50;5.50;;;;;;;;5095735;27;45337;-76
2022/10/22 09:34:39;;;;;;;;;3.00;3.00;;;;;;;;5096107;27;45431;-75
2022/10/22 09:37:06;;;;;;;;;8.75;8.75;;;;;;;;5094637;27;48302;-76
2022/10/22 09:39:33;;;;;;;;;7.00;7.00;;;;;;;;5097244;27;45231;-74
2022/10/22 09:41:58;;;;;;;;;5.00;5.00;;;;;;;;5096316;27;45784;-74
2022/10/22 09:44:24;;;;;;;;;7.25;7.25;;;;;;;;5097523;27;45226;-75
2022/10/22 09:46:49;;;;;;;;;3.75;3.75;;;;;;;;5097624;27;47611;-75
2022/10/22 09:49:16;;;;;;;;;4.00;4.00;;;;;;;;5099582;27;45340;-76
2022/10/22 09:51:48;;;;;;;;;4.00;4.00;;;;;;;;5095188;27;45405;-75
2022/10/22 09:54:15;;;;;;;;;6.00;6.00;;;;;;;;5101867;27;45230;-77
2022/10/22 09:56:40;;;;;;;;;8.00;8.00;;;;;;;;5101048;27;45501;-76
2022/10/22 09:59:13;;;;;;;;;17.75;15.75;;;;;;;;5096708;27;45397;-74
2022/10/22 10:01:39;;;;;;;;;12.50;12.50;;;;;;;;5101675;27;45260;-75
2022/10/22 10:04:09;;;;;;;;;4.25;4.25;;;;;;;;5097731;27;44790;-75
2022/10/22 10:06:35;;;;;;;;;4.75;4.75;;;;;;;;5096360;27;46822;-74
2022/10/22 10:09:04;;;;;;;;;6.75;6.75;;;;;;;;5095955;27;45307;-75
2022/10/22 10:11:39;;;;;;;;;6.00;6.00;;;;;;;;5097585;27;45565;-75
2022/10/22 10:14:14;;;;;;;;;5.00;4.75;;;;;;;;5098269;27;45417;-76
2022/10/22 10:16:44;;;;;;;;;7.00;7.00;;;;;;;;5098394;27;45370;-75
2022/10/22 10:19:20;;;;;;;;;5.25;5.25;;;;;;;;5097992;27;45260;-74
2022/10/22 10:21:45;;;;;;;;;5.50;5.50;;;;;;;;5097622;27;45321;-76
2022/10/22 10:24:13;;;;;;;;;7.25;7.00;;;;;;;;5101404;27;45640;-74
2022/10/22 10:26:47;;;;;;;;;7.00;7.00;;;;;;;;5099128;27;46392;-75
2022/10/22 10:29:13;;;;;;;;;5.50;5.25;;;;;;;;5100132;27;45327;-76
2022/10/22 10:32:01;;;;;;;;;5.00;5.00;;;;;;;;5099160;27;45313;-74
2022/10/22 10:34:37;;;;;;;;;4.00;4.00;;;;;;;;5096863;27;45620;-75
2022/10/22 10:37:23;;;;;;;;;6.00;6.00;;;;;;;;5096201;27;45498;-74
2022/10/22 10:39:48;;;;;;;;;4.50;4.00;;;;;;;;5094391;27;45350;-75
2022/10/22 10:42:45;;;;;;;;;6.00;6.00;;;;;;;;5096081;27;45390;-75
2022/10/22 10:45:11;;;;;;;;;6.50;6.25;;;;;;;;5071967;27;45565;-75
2022/10/22 10:47:45;;;;;;;;;4.75;4.75;;;;;;;;5096531;27;46258;-75
2022/10/22 10:50:16;;;;;;;;;8.00;8.00;;;;;;;;5096205;27;45330;-75
2022/10/22 10:52:58;;;;;;;;;6.00;6.00;;;;;;;;5096021;27;45414;-76
2022/10/22 10:55:23;;;;;;;;;4.75;4.75;;;;;;;;5096711;27;45339;-75
2022/10/22 10:58:03;;;;;;;;;5.00;5.00;;;;;;;;5095798;27;45343;-75
2022/10/22 11:00:31;;;;;;;;;6.00;6.00;;;;;;;;5097075;27;45504;-74
2022/10/22 11:03:16;;;;;;;;;6.75;6.75;;;;;;;;5096284;27;45349;-75
2022/10/22 11:06:01;;;;;;;;;25.25;25.25;;;;;;;;5098989;27;45441;-75
2022/10/22 11:08:31;;;;;;;;;5.50;5.50;;;;;;;;5099203;27;45407;-76
2022/10/22 11:11:00;;;;;;;;;5.25;4.75;;;;;;;;5099265;27;45265;-76
2022/10/22 11:13:28;;;;;;;;;7.00;6.75;;;;;;;;5099757;27;45215;-75
2022/10/22 11:16:04;;;;;;;;;7.50;7.50;;;;;;;;5098692;27;45711;-74
2022/10/22 11:18:41;;;;;;;;;10.00;10.00;;;;;;;;5099222;27;45723;-75
2022/10/22 11:21:12;;;;;;;;;5.50;5.50;;;;;;;;5099429;27;45380;-76
2022/10/22 11:23:52;;;;;;;;;7.00;6.50;;;;;;;;5103087;27;45266;-76
2022/10/22 11:26:33;;;;;;;;;6.00;6.00;;;;;;;;5105408;27;45431;-75
2022/10/22 11:29:03;;;;;;;;;8.00;8.00;;;;;;;;5099364;27;47526;-74
2022/10/22 11:31:29;;;;;;;;;5.50;5.50;;;;;;;;5098282;27;45420;-75
2022/10/22 11:34:04;;;;;;;;;2.00;2.00;;;;;;;;5099801;27;45411;-75
2022/10/22 11:36:32;;;;;;;;;7.00;7.00;;;;;;;;5100440;27;45200;-75
2022/10/22 11:38:58;;;;;;;;;5.50;5.50;;;;;;;;5100239;27;47634;-75
2022/10/22 11:41:26;;;;;;;;;9.50;7.75;;;;;;;;5099262;27;45407;-75
2022/10/22 11:44:04;;;;;;;;;19.50;18.50;;;;;;;;5100251;27;45419;-74
2022/10/22 11:46:42;;;;;;;;;8.75;8.00;;;;;;;;5099173;27;46046;-75
2022/10/22 11:49:14;;;;;;;;;8.00;8.00;;;;;;;;5100044;27;46239;-74
2022/10/22 11:51:40;;;;;;;;;6.25;6.25;;;;;;;;5102295;27;45308;-74
2022/10/22 11:54:24;;;;;;;;;5.00;5.00;;;;;;;;5100401;27;45438;-75
2022/10/22 11:56:57;;;;;;;;;6.00;6.00;;;;;;;;5098100;27;45515;-76
2022/10/22 11:59:39;;;;;;;;;4.00;4.00;;;;;;;;5100427;27;46230;-75
2022/10/22 12:02:22;;;;;;;;;8.75;8.75;;;;;;;;5099234;27;45317;-76
2022/10/22 12:04:47;;;;;;;;;6.25;6.25;;;;;;;;5098869;27;45322;-75
2022/10/22 12:07:33;;;;;;;;;1.67;1.67;;;;;;;;5099551;27;45259;-76
2022/10/22 12:09:58;;;;;;;;;3.00;3.00;;;;;;;;5099104;27;45292;-75
2022/10/22 12:12:23;;;;;;;;;3.25;3.25;;;;;;;;5098679;27;45193;-75
2022/10/22 12:14:53;;;;;;;;;7.25;7.25;;;;;;;;5099691;27;45298;-76
2022/10/22 12:17:20;;;;;;;;;3.25;3.25;;;;;;;;5099953;27;45314;-76
2022/10/22 12:19:48;;;;;;;;;2.50;2.50;;;;;;;;5098298;27;46165;-76
2022/10/22 12:22:26;;;;;;;;;3.00;3.00;;;;;;;;5098206;27;45340;-76
2022/10/22 12:24:53;;;;;;;;;6.00;6.00;;;;;;;;5096101;27;45395;-74
2022/10/22 12:27:20;;;;;;;;;4.75;4.75;;;;;;;;5081681;27;45703;-74
2022/10/22 12:29:45;;;;;;;;;3.67;3.67;;;;;;;;5077712;27;46616;-77
2022/10/22 12:32:12;;;;;;;;;4.00;4.00;;;;;;;;5088850;27;45511;-78
2022/10/22 12:34:44;;;;;;;;;6.00;6.00;;;;;;;;5106860;27;45651;-78
2022/10/22 12:37:09;;;;;;;;;2.33;2.33;;;;;;;;5116014;27;45485;-78
2022/10/22 12:39:35;;;;;;;;;7.00;7.00;;;;;;;;5094886;27;45480;-77
2022/10/22 12:42:03;;;;;;;;;53.25;44.00;;;;;;;;5109111;27;45465;-73
2022/10/22 12:44:31;;;;;;;;;38.00;34.00;;;;;;;;5115968;27;45464;-76
2022/10/22 12:46:57;;;;;;;;;6.50;6.50;;;;;;;;5099238;27;45545;-72
2022/10/22 12:49:28;;;;;;;;;2.25;2.25;;;;;;;;5076630;27;46377;-70
2022/10/22 12:51:53;;;;;;;;;1.50;1.50;;;;;;;;5094549;27;45334;-71
2022/10/22 12:54:22;;;;;;;;;3.75;3.75;;;;;;;;5089349;27;45515;-68
2022/10/22 12:56:48;;;;;;;;;3.00;3.00;;;;;;;;5096860;27;45591;-69
2022/10/22 12:59:21;;;;;;;;;1.00;1.00;;;;;;;;5094679;27;45477;-69
2022/10/22 13:01:47;;;;;;;;;0.00;0.00;;;;;;;;5078755;27;45361;-66
2022/10/22 13:04:15;;;;;;;;;3.00;3.00;;;;;;;;5089202;27;45420;-68
2022/10/22 13:06:51;;;;;;;;;2.00;2.00;;;;;;;;5077120;27;45401;-68
2022/10/22 13:09:18;;;;;;;;;7.25;7.25;;;;;;;;5075386;27;46259;-70
2022/10/22 13:11:52;;;;;;;;;4.00;4.00;;;;;;;;5084452;27;45272;-68
2022/10/22 13:14:17;;;;;;;;;5.00;3.50;;;;;;;;5074739;28;45254;-69
2022/10/22 13:16:42;;;;;;;;;7.00;7.00;;;;;;;;5077702;28;45336;-68
2022/10/22 13:19:27;;;;;;;;;2.75;2.75;;;;;;;;5078585;27;46219;-67
2022/10/22 13:21:53;;;;;;;;;5.50;5.50;;;;;;;;5094217;27;45475;-67
2022/10/22 13:24:18;;;;;;;;;4.00;4.00;;;;;;;;5075981;27;45447;-70
2022/10/22 13:26:48;;;;;;;;;2.00;2.00;;;;;;;;5075753;28;45529;-67
2022/10/22 13:29:16;;;;;;;;;3.00;3.00;;;;;;;;5074429;27;46163;-68
2022/10/22 13:31:46;;;;;;;;;2.75;2.75;;;;;;;;5074418;28;45327;-70
2022/10/22 13:34:14;;;;;;;;;5.00;5.00;;;;;;;;5075084;27;45465;-68
2022/10/22 13:36:39;;;;;;;;;3.75;3.75;;;;;;;;5075775;27;45334;-66
2022/10/22 13:39:06;;;;;;;;;2.25;2.25;;;;;;;;5076052;27;45246;-67
2022/10/22 13:41:37;;;;;;;;;0.00;0.00;;;;;;;;5116578;27;45474;-67
2022/10/22 13:44:02;;;;;;;;;3.75;3.75;;;;;;;;5081581;27;45484;-69
2022/10/22 13:46:28;;;;;;;;;3.50;3.50;;;;;;;;5084710;27;45444;-68
2022/10/22 13:48:54;;;;;;;;;1.75;1.75;;;;;;;;5092262;27;46523;-70
2022/10/22 13:51:21;;;;;;;;;1.00;1.00;;;;;;;;5096278;27;45373;-70
2022/10/22 13:53:48;;;;;;;;;1.67;1.67;;;;;;;;5095289;27;45343;-68
2022/10/22 13:56:17;;;;;;;;;4.00;4.00;;;;;;;;5096060;27;45382;-69
2022/10/22 13:58:43;;;;;;;;;4.00;4.00;;;;;;;;5096994;27;46897;-67
2022/10/22 14:01:14;;;;;;;;;2.00;2.00;;;;;;;;5096611;27;45493;-70
2022/10/22 14:03:40;;;;;;;;;1.00;1.00;;;;;;;;5096567;27;45495;-68
2022/10/22 14:06:09;;;;;;;;;1.25;1.25;;;;;;;;5096181;27;45482;-69
2022/10/22 14:08:34;;;;;;;;;1.00;1.00;;;;;;;;5096362;27;46192;-69
2022/10/22 14:10:59;;;;;;;;;2.50;2.50;;;;;;;;5095285;27;45436;-69
2022/10/22 14:13:25;;;;;;;;;3.00;3.00;;;;;;;;5094881;27;45365;-67
2022/10/22 14:15:51;;;;;;;;;4.25;4.25;;;;;;;;5096610;27;45571;-72
2022/10/22 14:18:24;;;;;;;;;3.75;3.00;;;;;;;;5096489;27;45255;-70
2022/10/22 14:20:51;;;;;;;;;5.00;5.00;;;;;;;;5095852;27;45388;-65
2022/10/22 14:23:20;;;;;;;;;3.25;3.25;;;;;;;;5094950;27;45479;-68
2022/10/22 14:25:45;;;;;;;;;2.33;2.33;;;;;;;;5096816;27;45831;-67
2022/10/22 14:28:11;;;;;;;;;1.00;1.00;;;;;;;;5096127;27;45430;-69
2022/10/22 14:30:37;;;;;;;;;2.00;2.00;;;;;;;;5095535;27;45373;-68
2022/10/22 14:33:12;;;;;;;;;2.50;2.50;;;;;;;;5095676;27;45382;-69
2022/10/22 14:35:37;;;;;;;;;3.25;3.25;;;;;;;;5094663;27;45352;-71
2022/10/22 14:38:05;;;;;;;;;3.75;3.75;;;;;;;;5094904;27;46161;-68
2022/10/22 14:40:30;;;;;;;;;3.00;3.00;;;;;;;;5097622;27;45408;-68
2022/10/22 14:42:56;;;;;;;;;1.00;1.00;;;;;;;;5100046;27;45230;-68
2022/10/22 14:45:22;;;;;;;;;2.00;2.00;;;;;;;;5103103;27;45448;-69